createdAt,value
2019-05-30T00:00:38.840Z,10.45
2019-05-30T00:03:28.624Z,10.54
2019-05-30T00:06:18.383Z,10.47
2019-05-30T00:12:33.966Z,10.34
2019-05-30T00:15:16.285Z,10.30
2019-05-30T00:18:05.996Z,10.15
2019-05-30T00:20:48.753Z,10.01
2019-05-30T00:23:38.492Z,10.15
2019-05-30T00:26:21.075Z,10.05
2019-05-30T00:32:13.305Z,9.78
2019-05-30T00:35:03.829Z,9.79
2019-05-30T00:37:47.607Z,9.72
2019-05-30T00:40:30.206Z,9.77
2019-05-30T00:43:19.990Z,9.75
2019-05-30T00:46:09.782Z,9.76
2019-05-30T00:49:00.188Z,9.67
2019-05-30T00:51:43.867Z,9.54
2019-05-30T00:54:33.648Z,9.53
2019-05-30T00:57:23.430Z,9.13
2019-05-30T01:00:13.333Z,9.20
2019-05-30T01:08:26.338Z,9.15
2019-05-30T01:11:16.075Z,9.16
2019-05-30T01:14:07.346Z,9.28
2019-05-30T01:16:50.614Z,9.00
2019-05-30T01:19:40.448Z,8.96
2019-05-30T01:22:23.159Z,8.90
2019-05-30T01:25:33.392Z,8.85
2019-05-30T01:28:15.885Z,8.82
2019-05-30T01:31:10.999Z,8.87
2019-05-30T01:33:49.945Z,8.75
2019-05-30T01:36:39.763Z,8.82
2019-05-30T01:39:42.259Z,8.89
2019-05-30T01:42:24.660Z,8.81
2019-05-30T01:48:09.413Z,8.82
2019-05-30T01:51:11.269Z,8.77
2019-05-30T01:53:53.853Z,8.85
2019-05-30T01:56:43.907Z,8.97
2019-05-30T01:59:34.679Z,9.04
2019-05-30T02:02:24.557Z,8.67
2019-05-30T02:05:14.628Z,8.86
2019-05-30T02:07:56.791Z,8.80
2019-05-30T02:10:46.525Z,8.73
2019-05-30T02:13:36.331Z,8.73
2019-05-30T02:16:26.095Z,8.63
2019-05-30T02:19:15.872Z,8.44
2019-05-30T02:22:05.872Z,8.44
2019-05-30T02:24:53.563Z,8.40
2019-05-30T02:27:37.510Z,8.52
2019-05-30T02:30:27.550Z,8.37
2019-05-30T02:33:17.519Z,8.67
2019-05-30T02:36:08.438Z,8.61
2019-05-30T02:38:51.952Z,8.11
2019-05-30T02:41:41.746Z,8.19
2019-05-30T02:44:25.574Z,8.05
2019-05-30T02:47:15.323Z,8.10
2019-05-30T02:49:57.673Z,7.81
2019-05-30T02:52:44.077Z,7.77
2019-05-30T02:55:26.563Z,7.50
2019-05-30T02:58:16.687Z,7.28
2019-05-30T03:01:08.565Z,7.08
2019-05-30T03:03:52.297Z,7.13
2019-05-30T03:06:42.085Z,7.11
2019-05-30T03:09:24.650Z,7.06
2019-05-30T03:12:14.438Z,7.03
2019-05-30T03:17:41.199Z,7.02
2019-05-30T03:20:22.126Z,7.29
2019-05-30T03:23:05.777Z,7.33
2019-05-30T03:25:55.251Z,7.13
2019-05-30T03:28:37.577Z,6.79
2019-05-30T03:31:47.808Z,6.85
2019-05-30T03:34:29.786Z,6.82
2019-05-30T03:37:28.817Z,6.82
2019-05-30T03:40:03.794Z,6.90
2019-05-30T03:42:53.754Z,6.95
2019-05-30T03:45:35.790Z,6.95
2019-05-30T03:48:46.128Z,6.94
2019-05-30T03:51:36.027Z,6.98
2019-05-30T03:54:58.387Z,7.09
2019-05-30T03:57:42.586Z,7.15
2019-05-30T04:01:14.904Z,7.24
2019-05-30T04:04:19.139Z,7.46
2019-05-30T04:07:03.500Z,7.81
2019-05-30T04:13:09.914Z,8.09
2019-05-30T04:16:00.684Z,8.25
2019-05-30T04:18:50.541Z,8.09
2019-05-30T04:21:40.304Z,8.17
2019-05-30T04:24:22.703Z,8.01
2019-05-30T04:27:13.812Z,8.25
2019-05-30T04:29:57.100Z,8.35
2019-05-30T04:32:46.928Z,8.38
2019-05-30T04:38:40.925Z,8.55
2019-05-30T04:41:23.356Z,8.38
2019-05-30T04:44:14.487Z,8.63
2019-05-30T04:46:57.188Z,8.63
2019-05-30T04:49:47.078Z,8.42
2019-05-30T04:52:29.229Z,8.66
2019-05-30T04:55:22.370Z,8.75
2019-05-30T04:58:04.411Z,8.96
2019-05-30T05:00:56.207Z,8.79
2019-05-30T05:03:46.284Z,9.03
2019-05-30T05:06:33.695Z,9.06
2019-05-30T05:09:18.024Z,9.06
2019-05-30T05:12:08.068Z,8.90
2019-05-30T05:14:50.925Z,9.08
2019-05-30T05:17:40.685Z,9.12
2019-05-30T05:20:23.572Z,9.08
2019-05-30T05:23:13.341Z,9.20
2019-05-30T05:28:47.511Z,9.28
2019-05-30T05:31:22.657Z,9.26
2019-05-30T05:34:05.947Z,9.34
2019-05-30T05:36:55.641Z,9.41
2019-05-30T05:39:45.395Z,9.42
2019-05-30T05:42:16.126Z,9.51
2019-05-30T05:45:06.392Z,9.73
2019-05-30T05:47:56.134Z,9.70
2019-05-30T05:50:38.432Z,9.83
2019-05-30T05:53:29.064Z,9.86
2019-05-30T05:56:11.919Z,10.01
2019-05-30T05:58:42.635Z,10.07
2019-05-30T06:01:13.508Z,10.10
2019-05-30T06:03:44.192Z,10.21
2019-05-30T06:06:14.818Z,10.31
2019-05-30T06:08:45.492Z,10.32
2019-05-30T06:11:16.619Z,10.16
2019-05-30T06:13:47.359Z,10.36
2019-05-30T06:39:08.938Z,11.20
2019-05-30T06:41:40.914Z,11.34
2019-05-30T06:44:11.589Z,11.32
2019-05-30T06:46:42.430Z,11.18
2019-05-30T07:15:01.408Z,11.55
2019-05-30T07:17:51.202Z,11.71
2019-05-30T07:20:41.233Z,11.95
2019-05-30T07:23:32.007Z,12.17
2019-05-30T07:26:16.381Z,12.38
2019-05-30T07:29:00.615Z,12.36
2019-05-30T07:31:50.031Z,12.58
2019-05-30T07:34:34.282Z,12.81
2019-05-30T07:37:24.482Z,13.21
2019-05-30T07:40:10.993Z,13.09
2019-05-30T07:43:00.893Z,12.83
2019-05-30T07:45:48.661Z,12.15
2019-05-30T07:48:34.883Z,12.69
2019-05-30T07:51:36.467Z,12.78
2019-05-30T07:54:18.717Z,12.55
2019-05-30T07:57:08.467Z,12.38
2019-05-30T07:59:58.285Z,12.25
2019-05-30T08:02:48.067Z,12.35
2019-05-30T08:05:38.888Z,12.58
2019-05-30T08:08:21.643Z,12.81
2019-05-30T08:11:23.517Z,13.40
2019-05-30T08:14:06.082Z,14.17
2019-05-30T08:16:55.810Z,14.03
2019-05-30T08:19:40.937Z,13.53
2019-05-30T08:22:31.879Z,13.51
2019-05-30T08:25:15.121Z,13.28
2019-05-30T08:28:04.871Z,13.27
2019-05-30T08:30:46.807Z,14.22
2019-05-30T08:33:37.646Z,14.58
2019-05-30T08:36:20.263Z,14.21
2019-05-30T08:39:10.034Z,14.39
2019-05-30T08:41:52.588Z,14.34
2019-05-30T08:44:42.313Z,14.34
2019-05-30T08:47:24.617Z,14.30
2019-05-30T08:50:14.910Z,14.59
2019-05-30T08:52:57.805Z,14.24
2019-05-30T08:55:40.689Z,13.95
2019-05-30T08:58:30.554Z,13.71
2019-05-30T09:01:20.362Z,14.00
2019-05-30T09:04:29.220Z,14.85
2019-05-30T09:07:19.059Z,14.71
2019-05-30T09:13:22.706Z,14.35
2019-05-30T09:16:12.805Z,14.75
2019-05-30T09:19:02.626Z,15.42
2019-05-30T09:21:52.371Z,15.05
2019-05-30T09:24:42.447Z,14.74
2019-05-30T09:27:32.140Z,15.10
2019-05-30T09:30:14.724Z,15.39
2019-05-30T09:33:04.512Z,15.24
2019-05-30T09:35:54.426Z,15.64
2019-05-30T09:38:45.319Z,16.05
2019-05-30T09:41:30.933Z,16.02
2019-05-30T09:44:20.728Z,15.88
2019-05-30T09:47:10.469Z,15.90
2019-05-30T09:50:03.719Z,16.54
2019-05-30T09:52:45.223Z,16.43
2019-05-30T09:55:35.143Z,16.23
2019-05-30T09:58:25.175Z,16.83
2019-05-30T10:01:14.937Z,17.51
2019-05-30T10:04:04.656Z,17.58
2019-05-30T10:06:46.743Z,17.53
2019-05-30T10:09:36.544Z,16.51
2019-05-30T10:12:26.274Z,16.92
2019-05-30T10:15:16.049Z,16.83
2019-05-30T10:18:06.262Z,16.80
2019-05-30T10:20:57.116Z,17.41
2019-05-30T10:23:40.865Z,17.45
2019-05-30T10:26:30.721Z,17.65
2019-05-30T10:29:21.232Z,17.90
2019-05-30T10:32:11.014Z,17.57
2019-05-30T10:35:00.823Z,17.05
2019-05-30T10:37:50.989Z,16.92
2019-05-30T10:40:35.605Z,17.16
2019-05-30T10:43:25.315Z,17.21
2019-05-30T10:46:15.209Z,17.50
2019-05-30T10:49:34.369Z,18.18
2019-05-30T10:52:08.324Z,18.69
2019-05-30T10:54:58.113Z,18.33
2019-05-30T10:57:49.924Z,18.23
2019-05-30T11:00:55.817Z,18.76
2019-05-30T11:03:41.023Z,19.43
2019-05-30T11:07:11.640Z,18.65
2019-05-30T11:10:23.605Z,18.50
2019-05-30T11:16:03.639Z,19.83
2019-05-30T11:18:47.516Z,19.76
2019-05-30T11:21:37.901Z,20.00
2019-05-30T11:24:28.227Z,20.11
2019-05-30T11:27:18.815Z,20.28
2019-05-30T11:30:01.761Z,20.64
2019-05-30T11:32:53.102Z,20.43
2019-05-30T11:35:37.321Z,20.57
2019-05-30T11:38:46.755Z,20.85
2019-05-30T11:44:40.229Z,19.88
2019-05-30T11:47:22.333Z,19.73
2019-05-30T11:50:13.044Z,19.75
2019-05-30T11:52:57.962Z,19.27
2019-05-30T11:58:42.905Z,19.45
2019-05-30T12:01:32.724Z,19.20
2019-05-30T12:04:16.062Z,19.91
2019-05-30T12:07:06.366Z,20.40
2019-05-30T12:09:50.766Z,20.28
2019-05-30T12:12:41.037Z,20.67
2019-05-30T12:15:24.186Z,20.98
2019-05-30T12:18:14.760Z,21.35
2019-05-30T12:20:58.201Z,21.62
2019-05-30T12:24:07.602Z,21.71
2019-05-30T12:26:51.884Z,21.82
2019-05-30T12:29:42.352Z,21.54
2019-05-30T12:32:25.134Z,21.50
2019-05-30T12:35:15.653Z,21.56
2019-05-30T12:38:02.655Z,21.92
2019-05-30T12:40:50.921Z,22.31
2019-05-30T12:43:33.542Z,22.29
2019-05-30T12:46:23.974Z,22.04
2019-05-30T12:49:06.701Z,22.13
2019-05-30T12:51:58.295Z,22.37
2019-05-30T12:54:42.092Z,22.11
2019-05-30T12:57:44.251Z,22.08
2019-05-30T13:00:26.923Z,21.98
2019-05-30T13:03:17.348Z,21.78
2019-05-30T13:06:07.794Z,21.33
2019-05-30T13:08:59.057Z,21.17
2019-05-30T13:11:42.446Z,21.26
2019-05-30T13:14:32.724Z,21.55
2019-05-30T13:17:16.077Z,21.81
2019-05-30T13:23:23.386Z,22.32
2019-05-30T13:26:13.692Z,21.66
2019-05-30T13:32:08.289Z,20.79
2019-05-30T13:34:51.481Z,20.69
2019-05-30T13:37:41.986Z,20.80
2019-05-30T13:40:32.282Z,21.37
2019-05-30T13:43:14.860Z,21.08
2019-05-30T13:46:06.366Z,21.37
2019-05-30T13:48:49.756Z,21.35
2019-05-30T13:51:52.626Z,20.66
2019-05-30T13:54:35.876Z,21.01
2019-05-30T13:57:45.248Z,21.77
2019-05-30T14:00:28.345Z,21.90
2019-05-30T14:03:18.631Z,22.23
2019-05-30T14:06:03.009Z,21.98
2019-05-30T14:08:53.772Z,21.41
2019-05-30T14:11:36.591Z,21.19
2019-05-30T14:14:26.896Z,21.50
2019-05-30T14:17:12.319Z,21.93
2019-05-30T14:20:02.932Z,22.22
2019-05-30T14:22:46.581Z,21.76
2019-05-30T14:25:36.895Z,21.42
2019-05-30T14:28:20.197Z,21.93
2019-05-30T14:31:11.916Z,22.06
2019-05-30T14:33:55.309Z,22.35
2019-05-30T14:36:45.645Z,22.35
2019-05-30T14:39:28.893Z,22.04
2019-05-30T14:42:19.186Z,21.89
2019-05-30T14:45:30.059Z,21.46
2019-05-30T14:48:13.150Z,21.45
2019-05-30T14:51:15.519Z,21.49
2019-05-30T14:53:58.417Z,21.15
2019-05-30T14:59:50.942Z,20.85
2019-05-30T15:02:41.232Z,20.94
2019-05-30T15:05:24.535Z,20.91
2019-05-30T15:08:14.793Z,21.46
2019-05-30T15:10:57.440Z,21.74
2019-05-30T15:13:47.777Z,21.87
2019-05-30T15:16:31.143Z,22.04
2019-05-30T15:19:21.466Z,21.49
2019-05-30T15:22:05.469Z,21.54
2019-05-30T15:24:55.941Z,21.44
2019-05-30T15:27:39.478Z,21.16
2019-05-30T15:30:29.773Z,20.15
2019-05-30T15:33:12.882Z,20.15
2019-05-30T15:36:03.168Z,20.14
2019-05-30T15:38:53.451Z,20.56
2019-05-30T15:41:36.779Z,20.67
2019-05-30T15:44:40.074Z,20.84
2019-05-30T15:47:23.014Z,20.93
2019-05-30T15:50:14.177Z,20.80
2019-05-30T15:52:58.467Z,20.78
2019-05-30T15:55:48.748Z,20.76
2019-05-30T15:58:32.116Z,20.35
2019-05-30T16:01:22.413Z,20.62
2019-05-30T16:04:12.692Z,20.50
2019-05-30T16:06:56.087Z,20.48
2019-05-30T16:09:46.717Z,20.35
2019-05-30T16:12:30.531Z,20.60
2019-05-30T16:15:13.476Z,20.69
2019-05-30T16:18:03.779Z,20.74
2019-05-30T16:20:47.251Z,20.61
2019-05-30T16:23:37.651Z,20.15
2019-05-30T16:26:21.985Z,19.88
2019-05-30T16:29:13.596Z,20.01
2019-05-30T16:31:56.501Z,19.88
2019-05-30T16:34:46.211Z,19.61
2019-05-30T16:37:31.820Z,19.55
2019-05-30T16:40:22.454Z,19.47
2019-05-30T16:43:06.587Z,19.56
2019-05-30T16:45:49.170Z,19.22
2019-05-30T16:48:38.978Z,19.08
2019-05-30T16:51:48.374Z,19.12
2019-05-30T16:54:38.168Z,19.06
2019-05-30T16:57:27.986Z,19.08
2019-05-30T17:00:18.152Z,19.09
2019-05-30T17:02:48.798Z,19.10
2019-05-30T17:05:38.610Z,19.22
2019-05-30T17:08:20.792Z,19.36
2019-05-30T17:11:30.172Z,19.50
2019-05-30T17:14:21.734Z,19.62
2019-05-30T17:17:05.783Z,19.36
2019-05-30T17:19:55.577Z,19.47
2019-05-30T17:25:50.695Z,19.40
2019-05-30T17:28:34.035Z,19.48
2019-05-30T17:31:23.994Z,19.56
2019-05-30T17:34:08.307Z,19.63
2019-05-30T17:36:58.571Z,19.73
2019-05-30T17:39:43.314Z,19.76
2019-05-30T17:42:33.685Z,19.75
2019-05-30T17:45:16.391Z,19.58
2019-05-30T17:48:16.020Z,19.73
2019-05-30T17:50:51.629Z,19.71
2019-05-30T17:53:42.001Z,19.76
2019-05-30T17:56:26.116Z,19.57
2019-05-30T17:59:15.955Z,19.54
2019-05-30T18:02:00.971Z,19.52
2019-05-30T18:04:51.600Z,19.54
2019-05-30T18:07:35.031Z,19.69
2019-05-30T18:10:24.962Z,19.78
2019-05-30T18:19:06.004Z,19.54
2019-05-30T18:21:55.768Z,19.49
2019-05-30T18:24:41.945Z,19.41
2019-05-30T18:27:28.029Z,19.37
2019-05-30T18:30:19.331Z,19.20
2019-05-30T18:33:22.141Z,19.09
2019-05-30T18:36:04.057Z,18.87
2019-05-30T18:38:55.037Z,18.51
2019-05-30T18:41:41.199Z,18.18
2019-05-30T18:44:32.825Z,17.98
2019-05-30T18:47:14.907Z,17.81
2019-05-30T18:50:05.248Z,17.98
2019-05-30T18:52:48.535Z,17.78
2019-05-30T18:55:38.947Z,17.85
2019-05-30T18:58:24.744Z,17.77
2019-05-30T19:01:34.000Z,17.61
2019-05-30T19:04:17.140Z,17.54
2019-05-30T19:10:12.528Z,17.43
2019-05-30T19:12:55.922Z,17.20
2019-05-30T19:15:46.406Z,17.22
2019-05-30T19:18:36.220Z,17.16
2019-05-30T19:21:27.889Z,17.10
2019-05-30T19:24:18.714Z,16.85
2019-05-30T19:33:28.966Z,16.72
2019-05-30T19:36:18.681Z,16.47
2019-05-30T19:39:02.846Z,16.39
2019-05-30T19:42:12.234Z,16.46
2019-05-30T19:44:55.421Z,16.30
2019-05-30T19:47:45.173Z,16.18
2019-05-30T19:50:28.420Z,16.10
2019-05-30T19:53:18.197Z,16.15
2019-05-30T19:56:08.077Z,16.13
2019-05-30T19:58:51.529Z,16.11
2019-05-30T20:01:41.346Z,16.15
2019-05-30T20:04:32.191Z,16.25
2019-05-30T20:07:15.619Z,16.31
2019-05-30T20:10:26.019Z,16.26
2019-05-30T20:13:28.427Z,16.06
2019-05-30T20:16:12.556Z,16.00
2019-05-30T20:19:02.230Z,15.83
2019-05-30T20:21:45.128Z,15.80
2019-05-30T20:24:34.846Z,15.65
2019-05-30T20:27:24.184Z,15.58
2019-05-30T20:30:14.205Z,15.60
2019-05-30T20:32:56.843Z,15.57
2019-05-30T20:35:46.958Z,15.58
2019-05-30T20:38:30.211Z,15.56
2019-05-30T20:41:12.083Z,15.64
2019-05-30T20:44:01.827Z,15.84
2019-05-30T20:46:51.732Z,15.77
2019-05-30T20:49:41.446Z,15.83
2019-05-30T20:52:25.786Z,15.81
2019-05-30T20:55:15.569Z,15.74
2019-05-30T20:57:57.547Z,15.71
2019-05-30T21:00:47.273Z,15.58
2019-05-30T21:03:29.227Z,15.53
2019-05-30T21:06:19.311Z,15.26
2019-05-30T21:09:01.547Z,14.89
2019-05-30T21:15:07.083Z,14.95
2019-05-30T21:18:17.434Z,14.83
2019-05-30T21:21:26.302Z,14.57
2019-05-30T21:24:16.225Z,14.36
2019-05-30T21:27:05.987Z,14.57
2019-05-30T21:29:55.765Z,14.50
2019-05-30T21:35:49.555Z,14.59
2019-05-30T21:38:32.365Z,14.72
2019-05-30T21:41:02.991Z,14.84
2019-05-30T21:43:52.729Z,14.80
2019-05-30T21:46:38.900Z,14.83
2019-05-30T21:49:21.142Z,14.78
2019-05-30T21:52:11.045Z,14.89
2019-05-30T21:55:03.246Z,14.92
2019-05-30T21:57:46.032Z,14.92
2019-05-30T22:03:20.689Z,14.80
2019-05-30T22:06:10.475Z,14.96
2019-05-30T22:08:53.142Z,14.93
2019-05-30T22:11:43.645Z,14.91
2019-05-30T22:14:27.255Z,14.93
2019-05-30T22:20:06.740Z,14.76
2019-05-30T22:22:52.200Z,14.79
2019-05-30T22:25:36.771Z,14.63
2019-05-30T22:37:12.540Z,14.60
2019-05-30T22:42:58.366Z,14.31
2019-05-30T22:45:41.017Z,14.06
2019-05-30T22:48:30.767Z,14.25
2019-05-30T22:51:20.623Z,14.20
2019-05-30T22:54:10.658Z,14.13
2019-05-30T22:57:01.404Z,14.16
2019-05-30T22:59:44.692Z,14.24
2019-05-30T23:02:34.416Z,14.23
2019-05-30T23:05:16.446Z,14.10
2019-05-30T23:08:06.494Z,14.09
2019-05-30T23:10:49.650Z,14.10
2019-05-30T23:13:40.750Z,14.09
2019-05-30T23:16:23.186Z,14.07
2019-05-30T23:19:12.916Z,14.09
2019-05-30T23:21:55.517Z,13.90
2019-05-30T23:24:45.232Z,13.79
2019-05-30T23:27:27.843Z,13.88
2019-05-30T23:30:17.742Z,13.85
2019-05-30T23:33:00.374Z,13.75
2019-05-30T23:35:50.336Z,13.69
2019-05-30T23:38:32.700Z,13.54
2019-05-30T23:41:22.402Z,13.52
2019-05-30T23:44:11.203Z,13.57
2019-05-30T23:46:56.192Z,13.59
2019-05-30T23:49:38.805Z,13.49
2019-05-30T23:52:28.529Z,13.40
2019-05-30T23:55:12.849Z,13.27
2019-05-30T23:58:02.545Z,13.39
